Time;durP1;ratioP1;P1;durP2;ratioP2;P2;SDS_P1;SDS_P2;PMS_P1;PMS_P2;Temp;Humidity;BMP_temperature;BMP_pressure;BME280_temperature;BME280_humidity;BME280_pressure;Samples;Min_cycle;Max_cycle;Signal;HPM_P1;HPM_P2
2023/06/19 00:01:47;;;;;;;2.92;2.63;;;21.40;56.50;;;;;;5030338;28;20270;-83
2023/06/19 00:04:13;;;;;;;2.72;2.50;;;21.40;56.50;;;;;;5011514;28;20033;-82
2023/06/19 00:06:38;;;;;;;2.45;2.25;;;21.40;56.50;;;;;;5023347;28;20032;-83
2023/06/19 00:09:07;;;;;;;2.60;2.40;;;21.40;56.50;;;;;;5031170;28;20048;-82
2023/06/19 00:11:33;;;;;;;2.65;2.45;;;21.30;56.50;;;;;;5038047;28;20086;-81
2023/06/19 00:13:59;;;;;;;2.25;2.15;;;21.30;56.50;;;;;;5037497;28;20037;-82
2023/06/19 00:16:25;;;;;;;3.17;2.92;;;21.30;56.70;;;;;;5025390;28;20056;-84
2023/06/19 00:18:55;;;;;;;2.80;2.60;;;21.40;56.90;;;;;;5023738;28;20084;-84
2023/06/19 00:21:24;;;;;;;2.70;2.50;;;21.30;56.90;;;;;;5023340;28;20026;-83
2023/06/19 00:23:50;;;;;;;2.35;2.15;;;21.30;57.00;;;;;;5023416;28;20033;-83
2023/06/19 00:26:15;;;;;;;2.75;2.55;;;21.40;57.10;;;;;;5023755;28;20076;-84
2023/06/19 00:28:43;;;;;;;3.28;2.97;;;21.40;57.10;;;;;;5024652;28;20034;-83
2023/06/19 00:31:09;;;;;;;2.80;2.60;;;21.30;57.20;;;;;;5020200;28;20026;-81
2023/06/19 00:33:35;;;;;;;3.22;2.95;;;21.30;57.30;;;;;;5023474;28;20018;-80
2023/06/19 00:36:01;;;;;;;3.35;3.05;;;21.30;57.60;;;;;;5039687;28;20037;-82
2023/06/19 00:38:26;;;;;;;3.42;3.13;;;21.20;57.80;;;;;;5040591;28;20033;-82
2023/06/19 00:40:52;;;;;;;3.97;3.60;;;21.20;58.00;;;;;;5038044;28;20056;-82
2023/06/19 00:43:18;;;;;;;4.15;3.75;;;21.20;58.40;;;;;;5028321;28;20474;-82
2023/06/19 00:45:44;;;;;;;3.92;3.53;;;21.10;58.60;;;;;;5026074;28;20084;-83
2023/06/19 00:48:09;;;;;;;3.53;3.22;;;21.10;58.80;;;;;;5019970;28;20014;-83
2023/06/19 00:50:37;;;;;;;3.10;2.85;;;21.10;59.00;;;;;;5011719;28;20106;-81
2023/06/19 00:53:04;;;;;;;3.03;2.83;;;21.10;59.20;;;;;;5040234;28;20014;-84
2023/06/19 00:55:32;;;;;;;4.15;3.75;;;21.10;59.30;;;;;;5008861;28;20026;-83
2023/06/19 00:57:59;;;;;;;3.70;3.40;;;21.10;59.40;;;;;;5023850;28;20089;-83
2023/06/19 01:00:24;;;;;;;3.40;3.10;;;21.10;59.40;;;;;;5026917;28;20037;-83
2023/06/19 01:02:50;;;;;;;3.20;2.90;;;21.10;59.50;;;;;;5024675;28;20030;-82
2023/06/19 01:05:17;;;;;;;3.70;3.40;;;21.10;59.60;;;;;;5017398;28;20061;-83
2023/06/19 01:08:05;;;;;;;3.38;3.08;;;21.10;59.60;;;;;;5020979;28;20030;-83
2023/06/19 01:10:40;;;;;;;2.97;2.78;;;21.10;59.50;;;;;;5002779;28;20037;-82
2023/06/19 01:13:16;;;;;;;3.17;2.97;;;21.10;59.60;;;;;;5004153;28;20026;-84
2023/06/19 01:15:43;;;;;;;3.45;3.15;;;21.10;59.60;;;;;;5004592;28;20522;-83
2023/06/19 01:18:13;;;;;;;3.13;2.90;;;21.10;59.70;;;;;;4988525;28;20433;-82
2023/06/19 01:20:39;;;;;;;3.80;3.50;;;21.00;59.70;;;;;;5027473;28;20084;-82
2023/06/19 01:23:11;;;;;;;3.45;3.15;;;21.10;59.80;;;;;;5022039;28;20014;-80
2023/06/19 01:25:37;;;;;;;3.15;2.85;;;21.10;59.80;;;;;;5021607;28;20026;-81
2023/06/19 01:28:07;;;;;;;3.70;3.40;;;21.10;59.90;;;;;;5039038;28;20121;-83
2023/06/19 01:30:34;;;;;;;3.38;3.08;;;21.10;59.90;;;;;;5037831;28;20025;-83
2023/06/19 01:33:11;;;;;;;3.80;3.50;;;21.00;59.90;;;;;;5006496;28;20483;-83
2023/06/19 01:35:41;;;;;;;3.17;2.97;;;21.10;59.90;;;;;;5019470;28;20030;-83
2023/06/19 01:38:08;;;;;;;3.03;2.83;;;21.10;59.90;;;;;;4997038;28;20030;-83
2023/06/19 01:40:34;;;;;;;2.97;2.78;;;21.10;59.90;;;;;;5001362;28;20056;-84
2023/06/19 01:43:01;;;;;;;3.03;2.83;;;21.10;60.00;;;;;;5022968;28;20034;-83
2023/06/19 01:45:29;;;;;;;3.00;2.80;;;21.10;60.00;;;;;;5005172;28;20040;-84
2023/06/19 01:47:54;;;;;;;2.75;2.55;;;21.00;60.10;;;;;;5022577;28;20105;-84
2023/06/19 01:50:22;;;;;;;2.75;2.55;;;21.10;60.20;;;;;;5021687;28;20050;-84
2023/06/19 01:52:48;;;;;;;2.80;2.60;;;21.10;60.30;;;;;;5022327;28;20053;-83
2023/06/19 01:55:14;;;;;;;2.80;2.60;;;21.10;60.30;;;;;;5003973;28;20030;-82
2023/06/19 01:57:40;;;;;;;2.10;2.00;;;21.10;60.30;;;;;;5021753;28;20068;-83
2023/06/19 02:00:10;;;;;;;2.25;2.15;;;21.00;60.40;;;;;;5021466;28;20022;-83
2023/06/19 02:02:36;;;;;;;2.58;2.38;;;21.10;60.40;;;;;;5021579;28;20053;-84
2023/06/19 02:05:02;;;;;;;2.15;1.95;;;21.00;60.50;;;;;;5012775;28;20026;-83
2023/06/19 02:07:28;;;;;;;2.20;2.00;;;21.00;60.60;;;;;;5006323;28;20117;-83
2023/06/19 02:09:54;;;;;;;2.50;2.35;;;21.00;60.70;;;;;;5002382;28;20034;-84
2023/06/19 02:12:19;;;;;;;2.53;2.40;;;21.00;60.80;;;;;;5018529;28;20018;-84
2023/06/19 02:14:45;;;;;;;2.65;2.45;;;21.00;60.80;;;;;;5021920;28;20097;-83
2023/06/19 02:17:11;;;;;;;2.30;2.10;;;21.00;60.90;;;;;;5020446;28;20022;-84
2023/06/19 02:19:38;;;;;;;2.70;2.50;;;21.00;61.00;;;;;;5035003;28;20038;-81
2023/06/19 02:22:04;;;;;;;2.58;2.38;;;21.00;61.00;;;;;;5038012;28;20010;-82
2023/06/19 02:24:30;;;;;;;2.58;2.38;;;21.00;61.00;;;;;;5037150;28;20064;-80
2023/06/19 02:26:55;;;;;;;2.25;2.10;;;21.00;61.00;;;;;;5038600;28;20038;-81
2023/06/19 02:29:21;;;;;;;3.17;2.92;;;21.00;61.00;;;;;;5021295;28;20022;-81
2023/06/19 02:31:47;;;;;;;3.53;3.22;;;20.90;61.10;;;;;;5038610;28;20097;-80
2023/06/19 02:34:12;;;;;;;3.15;2.95;;;20.90;61.20;;;;;;5038357;28;20109;-83
2023/06/19 02:36:38;;;;;;;3.00;2.80;;;20.90;61.30;;;;;;5030944;28;20026;-83
2023/06/19 02:39:06;;;;;;;4.15;3.13;;;20.80;61.50;;;;;;5026073;28;20026;-83
2023/06/19 02:41:31;;;;;;;2.90;2.70;;;20.80;61.70;;;;;;5027071;28;20053;-83
2023/06/19 02:43:57;;;;;;;2.78;2.58;;;20.80;61.70;;;;;;5023066;28;20030;-82
2023/06/19 02:46:23;;;;;;;3.58;3.28;;;20.80;61.80;;;;;;5021865;28;20075;-84
2023/06/19 02:48:48;;;;;;;3.35;3.05;;;20.80;61.90;;;;;;5025741;28;20081;-83
2023/06/19 02:51:14;;;;;;;3.30;3.00;;;20.70;62.00;;;;;;5019309;28;20670;-83
2023/06/19 02:53:41;;;;;;;3.80;3.47;;;20.70;62.10;;;;;;5020515;28;20037;-81
2023/06/19 02:56:07;;;;;;;3.70;3.40;;;20.70;62.30;;;;;;5019869;28;20026;-83
2023/06/19 02:58:34;;;;;;;3.60;3.30;;;20.70;62.40;;;;;;5023705;28;20089;-84
2023/06/19 03:01:00;;;;;;;3.65;3.35;;;20.70;62.50;;;;;;5024962;28;20033;-82
2023/06/19 03:03:25;;;;;;;3.53;3.22;;;20.70;62.60;;;;;;5024323;28;20064;-83
2023/06/19 03:05:51;;;;;;;3.05;2.83;;;20.70;62.70;;;;;;5015076;28;20027;-83
2023/06/19 03:08:17;;;;;;;3.40;3.10;;;20.70;62.80;;;;;;4987571;28;20026;-82
2023/06/19 03:10:43;;;;;;;3.15;2.92;;;20.70;63.00;;;;;;5009692;28;20676;-82
2023/06/19 03:13:08;;;;;;;3.17;2.92;;;20.70;63.20;;;;;;5024171;28;20053;-79
2023/06/19 03:15:34;;;;;;;3.92;3.58;;;20.70;63.30;;;;;;5017507;28;20037;-77
2023/06/19 03:18:06;;;;;;;3.45;3.25;;;20.70;63.70;;;;;;5015476;28;20467;-81
2023/06/19 03:20:32;;;;;;;3.42;3.13;;;20.70;64.00;;;;;;5015069;28;20083;-79
2023/06/19 03:22:58;;;;;;;3.65;3.33;;;20.60;64.30;;;;;;5016600;28;20045;-77
2023/06/19 03:25:23;;;;;;;4.43;4.07;;;20.60;64.50;;;;;;5025326;28;20052;-76
2023/06/19 03:27:49;;;;;;;4.10;3.70;;;20.60;64.80;;;;;;5009071;28;20109;-80
2023/06/19 03:30:18;;;;;;;3.70;3.40;;;20.50;65.10;;;;;;5019347;28;20026;-77
2023/06/19 03:32:45;;;;;;;3.28;3.03;;;20.50;65.30;;;;;;5026092;28;20014;-77
2023/06/19 03:35:10;;;;;;;3.33;3.03;;;20.50;65.40;;;;;;5023709;28;20072;-79
2023/06/19 03:37:36;;;;;;;3.92;3.63;;;20.50;65.60;;;;;;4990751;28;20026;-80
2023/06/19 03:40:05;;;;;;;3.50;3.20;;;20.50;65.70;;;;;;5017443;28;20105;-77
2023/06/19 03:42:32;;;;;;;3.55;3.22;;;20.50;65.70;;;;;;5017305;28;20056;-80
2023/06/19 03:44:57;;;;;;;3.97;3.67;;;20.60;66.10;;;;;;5016521;28;20032;-80
2023/06/19 03:47:23;;;;;;;4.10;3.70;;;20.60;66.00;;;;;;5016965;28;20033;-83
2023/06/19 03:49:49;;;;;;;3.55;3.25;;;20.60;65.80;;;;;;4998491;28;20042;-80
2023/06/19 03:52:14;;;;;;;3.78;3.47;;;20.60;65.80;;;;;;5016838;28;20471;-79
2023/06/19 03:54:41;;;;;;;3.58;3.28;;;20.60;65.70;;;;;;5017122;28;20020;-80
2023/06/19 03:57:08;;;;;;;3.58;3.28;;;20.60;65.60;;;;;;5017513;28;20046;-80
2023/06/19 03:59:34;;;;;;;3.78;3.47;;;20.60;65.50;;;;;;5007730;28;20068;-81
2023/06/19 04:01:59;;;;;;;3.53;3.22;;;20.50;65.60;;;;;;5018323;28;20030;-81
2023/06/19 04:04:25;;;;;;;3.33;3.08;;;20.50;65.70;;;;;;5018240;28;20041;-79
2023/06/19 04:06:51;;;;;;;3.90;3.60;;;20.60;65.70;;;;;;4994107;28;20053;-82
2023/06/19 04:09:16;;;;;;;3.47;3.17;;;20.60;65.70;;;;;;5018687;28;20030;-82
2023/06/19 04:11:42;;;;;;;4.30;3.90;;;20.60;65.60;;;;;;5001245;28;20099;-85
2023/06/19 04:14:08;;;;;;;4.05;3.65;;;20.60;65.50;;;;;;5018596;28;20026;-84
2023/06/19 04:16:34;;;;;;;3.75;3.45;;;20.60;65.40;;;;;;5018914;28;20038;-79
2023/06/19 04:19:00;;;;;;;4.47;4.07;;;20.70;65.40;;;;;;5016538;28;20049;-82
2023/06/19 04:21:26;;;;;;;3.85;3.55;;;20.70;65.30;;;;;;5017943;28;20052;-80
2023/06/19 04:23:51;;;;;;;3.95;3.65;;;20.70;65.30;;;;;;5018205;28;20034;-78
2023/06/19 04:26:18;;;;;;;3.63;3.33;;;20.70;65.20;;;;;;5015777;28;20069;-77
2023/06/19 04:28:44;;;;;;;3.60;3.30;;;20.70;65.30;;;;;;4998326;28;20022;-76
2023/06/19 04:31:10;;;;;;;3.83;3.53;;;20.70;65.40;;;;;;5014337;28;20028;-76
2023/06/19 04:33:36;;;;;;;3.22;3.03;;;20.70;65.50;;;;;;5013316;28;20045;-76
2023/06/19 04:36:01;;;;;;;3.08;2.78;;;20.70;65.50;;;;;;5005253;28;20038;-76
2023/06/19 04:38:27;;;;;;;3.03;2.83;;;20.70;65.60;;;;;;4995778;28;20449;-76
2023/06/19 04:40:53;;;;;;;2.80;2.60;;;20.70;65.50;;;;;;5002667;28;20030;-77
2023/06/19 04:43:19;;;;;;;2.78;2.58;;;20.70;65.50;;;;;;5011733;28;20853;-76
2023/06/19 04:45:45;;;;;;;2.90;2.70;;;20.70;65.60;;;;;;5012553;28;20034;-76
2023/06/19 04:48:11;;;;;;;2.92;2.72;;;20.70;65.60;;;;;;5015262;28;20033;-76
2023/06/19 04:50:37;;;;;;;3.05;2.85;;;20.80;65.60;;;;;;5017422;28;20025;-76
2023/06/19 04:53:03;;;;;;;2.58;2.38;;;20.80;65.60;;;;;;5017745;28;20045;-77
2023/06/19 04:55:28;;;;;;;2.92;2.72;;;20.80;65.60;;;;;;5017943;28;20042;-76
2023/06/19 04:57:54;;;;;;;4.28;3.90;;;20.90;65.70;;;;;;5018544;28;20106;-77
2023/06/19 05:00:21;;;;;;;4.60;4.20;;;20.90;65.50;;;;;;5017696;28;20018;-76
2023/06/19 05:02:47;;;;;;;4.20;3.80;;;20.90;65.50;;;;;;5016816;28;20080;-77
2023/06/19 05:05:14;;;;;;;5.07;4.07;;;20.90;65.40;;;;;;5016286;28;20025;-77
2023/06/19 05:07:40;;;;;;;4.95;4.45;;;21.00;65.30;;;;;;5017712;28;20060;-76
2023/06/19 05:10:07;;;;;;;5.32;4.82;;;21.10;65.20;;;;;;5019577;28;20030;-76
2023/06/19 05:12:34;;;;;;;5.38;4.82;;;;;;;;;;5022885;28;20030;-75
2023/06/19 05:15:00;;;;;;;4.82;4.43;;;21.20;64.40;;;;;;5026030;28;20030;-77
2023/06/19 05:17:25;;;;;;;5.25;4.78;;;21.30;64.80;;;;;;5018863;28;20053;-76
2023/06/19 05:19:51;;;;;;;5.00;4.60;;;21.40;64.70;;;;;;5017356;28;20032;-76
2023/06/19 05:22:21;;;;;;;4.70;4.28;;;21.50;64.70;;;;;;5015548;28;20242;-78
2023/06/19 05:24:47;;;;;;;4.15;3.83;;;21.50;64.60;;;;;;5017464;28;20040;-77
2023/06/19 05:27:13;;;;;;;5.22;4.72;;;21.70;64.50;;;;;;5018290;28;20026;-77
2023/06/19 05:29:38;;;;;;;6.82;6.18;;;21.70;64.50;;;;;;5025420;28;20025;-76
2023/06/19 05:32:05;;;;;;;6.75;6.05;;;21.70;64.50;;;;;;5030860;28;20103;-77
2023/06/19 05:34:31;;;;;;;6.95;6.10;;;21.70;64.70;;;;;;5016855;28;20065;-77
2023/06/19 05:36:57;;;;;;;7.50;6.45;;;21.80;64.90;;;;;;5005899;28;20049;-76
2023/06/19 05:39:23;;;;;;;7.05;6.38;;;21.80;65.20;;;;;;5017335;28;20045;-76
2023/06/19 05:41:49;;;;;;;6.32;5.68;;;21.80;65.30;;;;;;5018325;28;20026;-75
2023/06/19 05:44:16;;;;;;;5.63;5.13;;;21.80;65.40;;;;;;5018832;28;20038;-75
2023/06/19 05:46:42;;;;;;;5.97;5.38;;;21.90;65.50;;;;;;5019690;28;20011;-74
2023/06/19 05:49:08;;;;;;;9.40;6.35;;;21.90;65.30;;;;;;5001514;28;20057;-76
2023/06/19 05:51:34;;;;;;;6.57;5.97;;;22.00;65.20;;;;;;5016382;28;20030;-75
2023/06/19 05:54:03;;;;;;;7.05;5.90;;;22.10;65.20;;;;;;4995624;28;20032;-77
2023/06/19 05:56:36;;;;;;;10.35;5.90;;;22.10;65.00;;;;;;4997633;28;20015;-76
2023/06/19 05:59:02;;;;;;;5.60;5.10;;;22.20;65.00;;;;;;4995337;28;20022;-77
2023/06/19 06:01:31;;;;;;;6.72;6.10;;;22.20;65.30;;;;;;4996336;28;20027;-76
2023/06/19 06:03:57;;;;;;;7.53;6.38;;;22.30;65.60;;;;;;5008975;28;20037;-77
2023/06/19 06:06:24;;;;;;;6.68;5.97;;;22.30;65.90;;;;;;4990251;28;20022;-76
2023/06/19 06:08:51;;;;;;;6.50;5.90;;;22.30;66.10;;;;;;5015098;28;20034;-77
2023/06/19 06:11:17;;;;;;;5.70;5.20;;;22.30;66.40;;;;;;5016470;28;20025;-76
2023/06/19 06:13:43;;;;;;;5.07;4.68;;;22.30;66.60;;;;;;5015700;28;20111;-76
2023/06/19 06:16:08;;;;;;;5.30;4.82;;;22.40;66.80;;;;;;5015622;28;20026;-76
2023/06/19 06:18:34;;;;;;;4.78;4.38;;;22.50;67.50;;;;;;5020055;28;20025;-76
2023/06/19 06:21:00;;;;;;;4.22;3.90;;;22.60;67.50;;;;;;5024941;28;20037;-75
2023/06/19 06:23:26;;;;;;;4.00;3.70;;;22.70;67.80;;;;;;5021944;28;20029;-76
2023/06/19 06:25:51;;;;;;;3.85;3.55;;;22.70;67.60;;;;;;5027011;28;20829;-75
2023/06/19 06:28:17;;;;;;;3.80;3.50;;;22.80;67.60;;;;;;5025747;28;20025;-74
2023/06/19 06:30:43;;;;;;;4.10;3.80;;;22.90;67.50;;;;;;5019760;28;20036;-76
2023/06/19 06:33:10;;;;;;;3.63;3.33;;;23.00;67.20;;;;;;5019748;28;20018;-77
2023/06/19 06:35:35;;;;;;;3.25;2.95;;;23.10;66.90;;;;;;5017258;28;20026;-74
2023/06/19 06:38:07;;;;;;;4.28;3.88;;;23.20;66.70;;;;;;5001972;28;20049;-76
2023/06/19 06:40:53;;;;;;;3.83;3.53;;;23.30;66.10;;;;;;5002189;28;20471;-78
2023/06/19 06:43:19;;;;;;;7.10;4.10;;;23.40;65.70;;;;;;4999268;28;20038;-75
2023/06/19 06:45:44;;;;;;;5.10;4.00;;;23.60;64.40;;;;;;5011322;28;20041;-76
2023/06/19 06:48:10;;;;;;;5.82;5.30;;;23.90;63.00;;;;;;5014777;28;20034;-76
2023/06/19 06:50:36;;;;;;;5.00;4.60;;;24.90;60.80;;;;;;5014693;28;20026;-76
2023/06/19 06:53:02;;;;;;;5.10;4.55;;;26.30;58.00;;;;;;5014626;28;20030;-77
2023/06/19 06:55:27;;;;;;;8.52;5.85;;;27.80;54.90;;;;;;5013975;28;20061;-76
2023/06/19 06:57:54;;;;;;;7.15;5.45;;;;;;;;;;5018645;28;20072;-76
2023/06/19 07:00:20;;;;;;;6.32;5.72;;;28.00;51.20;;;;;;5015497;28;20045;-76
2023/06/19 07:02:47;;;;;;;5.68;5.18;;;;;;;;;;5022844;28;20072;-77
2023/06/19 07:05:13;;;;;;;6.18;5.57;;;27.30;52.20;;;;;;5013989;28;20041;-77
2023/06/19 07:07:39;;;;;;;5.60;5.10;;;26.90;53.30;;;;;;5013724;28;20017;-77
2023/06/19 07:10:05;;;;;;;4.95;4.55;;;26.50;54.10;;;;;;5015712;28;20407;-76
2023/06/19 07:12:31;;;;;;;5.22;4.70;;;26.20;54.70;;;;;;5019077;28;20017;-78
2023/06/19 07:14:57;;;;;;;5.75;4.68;;;26.20;55.10;;;;;;5014445;28;20042;-77
2023/06/19 07:17:22;;;;;;;5.20;4.70;;;26.20;54.70;;;;;;5016218;28;20053;-77
2023/06/19 07:19:48;;;;;;;4.97;4.50;;;26.30;54.70;;;;;;5015545;28;20081;-77
2023/06/19 07:22:15;;;;;;;5.55;4.93;;;26.50;54.60;;;;;;4998458;28;20036;-78
2023/06/19 07:24:41;;;;;;;5.20;4.80;;;26.70;54.10;;;;;;5000439;28;20149;-76
2023/06/19 07:27:07;;;;;;;6.55;4.47;;;26.90;53.70;;;;;;4997869;28;20181;-76
2023/06/19 07:29:32;;;;;;;4.63;4.25;;;27.20;53.30;;;;;;5014564;28;20075;-75
2023/06/19 07:32:00;;;;;;;4.72;4.38;;;27.20;53.10;;;;;;5013955;28;20505;-77
2023/06/19 07:34:26;;;;;;;5.20;4.80;;;27.20;53.30;;;;;;5013664;28;20069;-77
2023/06/19 07:36:52;;;;;;;6.10;5.60;;;27.20;52.90;;;;;;5007603;28;20398;-77
2023/06/19 07:39:17;;;;;;;5.18;4.68;;;27.10;52.80;;;;;;5012041;28;20038;-77
2023/06/19 07:41:45;;;;;;;5.45;4.57;;;;;;;;;;5013337;28;20022;-77
2023/06/19 07:44:11;;;;;;;4.40;4.10;;;26.60;52.80;;;;;;4996141;28;20372;-77
2023/06/19 07:46:37;;;;;;;4.95;4.53;;;26.60;53.70;;;;;;5014054;28;20028;-76
2023/06/19 07:49:03;;;;;;;5.28;4.78;;;26.60;53.80;;;;;;5012791;28;20051;-77
2023/06/19 07:51:28;;;;;;;4.53;4.18;;;26.60;53.40;;;;;;5014681;28;20097;-77
2023/06/19 07:53:54;;;;;;;4.20;3.78;;;26.70;53.80;;;;;;5015563;28;20018;-76
2023/06/19 07:56:20;;;;;;;6.28;5.15;;;26.90;53.60;;;;;;5015002;28;20391;-77
2023/06/19 07:58:46;;;;;;;5.25;4.60;;;27.20;53.30;;;;;;5016274;28;20105;-77
2023/06/19 08:01:12;;;;;;;5.38;4.10;;;27.40;53.20;;;;;;5017034;28;20034;-76
2023/06/19 08:03:38;;;;;;;5.22;4.72;;;27.60;52.60;;;;;;5015892;28;20034;-76
2023/06/19 08:06:04;;;;;;;5.40;4.28;;;27.70;52.10;;;;;;5013415;28;20125;-76
2023/06/19 08:08:29;;;;;;;4.60;4.20;;;27.60;52.50;;;;;;5015698;28;20030;-76
2023/06/19 08:10:55;;;;;;;3.70;3.40;;;27.40;52.80;;;;;;4997399;28;20030;-76
2023/06/19 08:13:21;;;;;;;4.07;3.75;;;27.50;53.10;;;;;;5015954;28;20060;-77
2023/06/19 08:15:47;;;;;;;4.30;3.90;;;27.60;52.70;;;;;;4996644;28;20036;-77
2023/06/19 08:18:12;;;;;;;6.13;4.38;;;27.70;52.60;;;;;;4995918;28;20030;-77
2023/06/19 08:20:38;;;;;;;5.15;4.68;;;27.80;51.90;;;;;;5013577;28;20030;-76
2023/06/19 08:23:04;;;;;;;4.47;4.10;;;27.60;52.10;;;;;;5016313;28;20064;-78
2023/06/19 08:25:29;;;;;;;3.92;3.63;;;27.50;52.30;;;;;;5017719;28;20452;-78
2023/06/19 08:27:55;;;;;;;4.95;4.50;;;27.60;52.70;;;;;;5000407;28;20491;-77
2023/06/19 08:30:21;;;;;;;4.72;4.22;;;27.70;52.50;;;;;;5017454;28;20062;-77
2023/06/19 08:32:48;;;;;;;4.57;4.18;;;27.70;52.60;;;;;;5018555;28;20018;-77
2023/06/19 08:35:15;;;;;;;4.63;4.22;;;27.70;52.90;;;;;;5001465;28;20030;-77
2023/06/19 08:37:40;;;;;;;4.50;3.38;;;27.50;53.60;;;;;;5001271;28;20075;-77
2023/06/19 08:40:09;;;;;;;4.57;4.18;;;27.40;52.90;;;;;;5020499;28;20456;-79
2023/06/19 08:42:35;;;;;;;4.50;4.00;;;27.30;52.40;;;;;;5003285;28;20037;-78
2023/06/19 08:45:02;;;;;;;3.75;3.45;;;;;;;;;;5019436;28;20029;-79
2023/06/19 08:47:33;;;;;;;3.85;3.55;;;26.80;53.00;;;;;;5019198;28;20045;-78
2023/06/19 08:49:59;;;;;;;;;;;;;;;;;;5019615;28;20112;-79
2023/06/19 08:52:34;;;;;;;4.15;3.58;;;26.90;52.90;;;;;;5021096;28;19901;-80
2023/06/19 08:55:00;;;;;;;3.92;3.47;;;27.10;53.20;;;;;;5003037;28;20034;-79
2023/06/19 08:57:39;;;;;;;4.47;4.07;;;27.30;52.80;;;;;;5004357;28;20033;-78
2023/06/19 09:00:07;;;;;;;4.50;4.10;;;27.30;52.80;;;;;;5025037;28;20025;-79
2023/06/19 09:02:42;;;;;;;3.92;3.58;;;27.50;53.00;;;;;;5036745;28;20097;-78
2023/06/19 09:05:17;;;;;;;4.05;3.75;;;27.90;53.00;;;;;;5028452;28;20032;-78
2023/06/19 09:07:44;;;;;;;3.85;3.55;;;28.50;51.60;;;;;;5008029;28;20049;-78
2023/06/19 09:10:19;;;;;;;3.03;2.83;;;29.00;50.90;;;;;;5020774;28;20045;-78
2023/06/19 09:13:00;;;;;;;2.60;2.40;;;29.80;49.40;;;;;;5041758;28;20022;-78
2023/06/19 09:15:29;;;;;;;2.33;2.13;;;30.10;47.30;;;;;;5052478;28;20030;-77
2023/06/19 09:18:06;;;;;;;6.82;2.35;;;30.10;46.90;;;;;;5056617;28;20022;-78
2023/06/19 09:20:57;;;;;;;3.78;2.33;;;29.90;46.90;;;;;;5023422;28;20022;-79
2023/06/19 09:23:23;;;;;;;3.45;2.80;;;29.50;47.20;;;;;;5036789;28;20064;-77
2023/06/19 09:25:55;;;;;;;2.95;2.60;;;29.00;48.10;;;;;;5035363;28;20018;-77
2023/06/19 09:28:25;;;;;;;2.50;2.40;;;28.70;48.70;;;;;;5034810;28;20022;-79
2023/06/19 09:31:02;;;;;;;3.10;2.90;;;28.70;49.30;;;;;;5021939;28;20026;-77
2023/06/19 09:33:31;;;;;;;4.88;3.08;;;28.80;49.50;;;;;;5000585;28;20399;-78
2023/06/19 09:35:58;;;;;;;3.67;2.60;;;28.90;49.40;;;;;;5008122;28;20022;-78
2023/06/19 09:38:27;;;;;;;3.60;3.15;;;29.00;48.70;;;;;;5000207;28;20023;-78
2023/06/19 09:40:53;;;;;;;5.82;3.53;;;29.10;48.70;;;;;;5008861;28;20136;-78
2023/06/19 09:43:25;;;;;;;5.18;3.50;;;29.00;49.20;;;;;;5017994;28;20048;-79
2023/06/19 09:45:54;;;;;;;3.80;3.50;;;;;;;;;;5020285;28;20557;-78
2023/06/19 09:48:34;;;;;;;5.05;3.67;;;29.50;48.30;;;;;;5018000;28;20018;-78
2023/06/19 09:51:23;;;;;;;3.30;3.10;;;29.60;49.00;;;;;;5019465;28;20026;-78
2023/06/19 09:53:50;;;;;;;4.88;3.28;;;29.80;49.20;;;;;;5019636;28;20137;-79
2023/06/19 09:56:21;;;;;;;3.83;3.53;;;29.80;49.10;;;;;;5021524;28;20026;-78
2023/06/19 09:58:49;;;;;;;4.18;3.78;;;29.60;49.30;;;;;;5017394;28;20125;-78
2023/06/19 10:01:18;;;;;;;3.70;3.38;;;29.30;50.20;;;;;;5019666;28;20030;-78
2023/06/19 10:03:44;;;;;;;4.20;3.85;;;29.00;50.40;;;;;;5020515;28;20026;-79
2023/06/19 10:06:15;;;;;;;4.63;4.22;;;28.80;50.80;;;;;;5012191;28;20018;-78
2023/06/19 10:08:43;;;;;;;5.90;4.47;;;28.70;51.20;;;;;;5020183;28;20026;-81
2023/06/19 10:11:13;;;;;;;4.38;3.97;;;28.70;51.40;;;;;;5002174;28;20080;-79
2023/06/19 10:13:41;;;;;;;4.22;3.80;;;28.80;51.30;;;;;;5019576;28;20106;-77
2023/06/19 10:16:08;;;;;;;4.55;4.15;;;29.00;50.80;;;;;;5018245;28;20030;-79
2023/06/19 10:18:46;;;;;;;5.32;4.20;;;29.10;50.90;;;;;;5020036;28;20021;-78
2023/06/19 10:21:19;;;;;;;4.78;4.38;;;29.20;50.30;;;;;;5020129;28;20475;-77
2023/06/19 10:23:57;;;;;;;4.72;4.35;;;29.30;50.50;;;;;;5019808;28;20042;-78
2023/06/19 10:26:34;;;;;;;5.38;4.50;;;29.10;50.80;;;;;;5021425;28;20049;-79
2023/06/19 10:29:00;;;;;;;5.15;4.32;;;28.90;50.80;;;;;;5005685;28;20022;-79
2023/06/19 10:31:28;;;;;;;4.28;3.88;;;28.70;51.30;;;;;;5023133;28;20025;-78
2023/06/19 10:33:55;;;;;;;4.22;3.90;;;28.80;51.60;;;;;;5021495;28;20059;-78
2023/06/19 10:36:25;;;;;;;6.25;4.68;;;29.10;51.10;;;;;;5015417;28;20491;-79
2023/06/19 10:38:51;;;;;;;4.72;4.35;;;29.40;50.70;;;;;;5001381;28;20391;-77
2023/06/19 10:41:18;;;;;;;4.80;4.40;;;29.60;50.20;;;;;;4998991;28;20045;-78
2023/06/19 10:44:14;;;;;;;4.63;4.15;;;29.70;50.20;;;;;;5016421;28;20080;-79
2023/06/19 10:46:43;;;;;;;4.38;4.07;;;29.60;49.80;;;;;;5026420;28;20626;-79
2023/06/19 10:49:11;;;;;;;5.65;4.43;;;29.40;50.10;;;;;;5022395;28;20082;-79
2023/06/19 10:51:39;;;;;;;4.43;4.13;;;29.30;50.50;;;;;;5021723;28;20025;-79
2023/06/19 10:54:05;;;;;;;4.85;4.07;;;29.30;50.30;;;;;;5002620;28;20030;-78
2023/06/19 10:56:31;;;;;;;3.97;3.67;;;29.20;50.40;;;;;;4999668;28;20029;-79
2023/06/19 10:59:09;;;;;;;4.05;3.75;;;29.10;50.40;;;;;;4999826;28;20077;-79
2023/06/19 11:01:45;;;;;;;3.67;3.47;;;29.00;50.50;;;;;;5004945;28;20019;-77
2023/06/19 11:04:12;;;;;;;5.18;4.28;;;;;;;;;;5017806;28;20021;-77
2023/06/19 11:06:39;;;;;;;3.92;3.53;;;28.70;50.30;;;;;;5018357;28;20036;-78
2023/06/19 11:09:06;;;;;;;4.90;4.30;;;28.90;50.60;;;;;;5018979;28;20026;-79
2023/06/19 11:11:43;;;;;;;4.22;3.83;;;29.20;49.60;;;;;;5019869;28;20026;-78
2023/06/19 11:14:12;;;;;;;4.65;4.22;;;29.30;49.20;;;;;;4999835;28;20037;-79
2023/06/19 11:16:40;;;;;;;3.90;3.60;;;29.40;49.20;;;;;;5018444;28;20107;-78
2023/06/19 11:19:14;;;;;;;4.00;3.60;;;29.70;49.00;;;;;;5024838;28;20022;-78
2023/06/19 11:21:40;;;;;;;3.78;3.47;;;29.90;48.30;;;;;;5023770;28;20046;-78
2023/06/19 11:24:11;;;;;;;3.75;3.45;;;30.10;47.90;;;;;;5000793;28;20052;-79
2023/06/19 11:26:49;;;;;;;3.80;3.50;;;30.20;47.50;;;;;;5020032;28;20026;-79
2023/06/19 11:29:25;;;;;;;5.00;3.60;;;30.40;47.50;;;;;;5019371;28;20036;-80
2023/06/19 11:32:04;;;;;;;3.83;3.50;;;30.40;47.20;;;;;;5023547;28;20041;-78
2023/06/19 11:34:36;;;;;;;3.60;3.35;;;30.50;47.20;;;;;;5017753;28;20034;-78
2023/06/19 11:37:22;;;;;;;3.90;3.60;;;30.90;46.60;;;;;;5010528;28;20022;-80
2023/06/19 11:39:50;;;;;;;3.10;2.88;;;30.90;45.80;;;;;;5018350;28;20037;-79
2023/06/19 11:42:19;;;;;;;3.17;2.97;;;31.00;46.30;;;;;;5015959;28;20089;-79
2023/06/19 11:45:03;;;;;;;3.55;3.33;;;31.40;45.70;;;;;;5016074;28;20415;-79
2023/06/19 11:47:49;;;;;;;3.47;3.17;;;31.60;45.10;;;;;;5018404;28;20125;-78
2023/06/19 11:50:19;;;;;;;3.17;2.97;;;31.50;45.60;;;;;;5017729;28;20383;-79
2023/06/19 11:52:44;;;;;;;3.00;2.80;;;31.40;45.10;;;;;;5000301;28;20435;-80
2023/06/19 11:55:10;;;;;;;3.30;3.10;;;31.50;45.50;;;;;;5023023;28;20076;-80
2023/06/19 11:57:40;;;;;;;3.05;2.85;;;31.70;44.90;;;;;;5031131;28;20411;-79
2023/06/19 12:00:18;;;;;;;4.30;3.33;;;31.70;44.70;;;;;;5013882;28;20398;-79
2023/06/19 12:02:47;;;;;;;3.22;3.00;;;31.60;45.00;;;;;;5009588;28;20355;-80
2023/06/19 12:05:14;;;;;;;3.78;3.50;;;31.50;45.00;;;;;;5040379;28;20006;-78
2023/06/19 12:07:40;;;;;;;4.10;3.05;;;31.40;45.00;;;;;;5037315;28;20050;-79
2023/06/19 12:10:09;;;;;;;3.70;3.40;;;31.20;45.50;;;;;;5034880;28;20049;-78
2023/06/19 12:12:37;;;;;;;3.83;3.40;;;31.10;45.40;;;;;;5039855;28;20097;-77
2023/06/19 12:15:05;;;;;;;3.45;3.20;;;31.20;45.30;;;;;;5038849;28;20076;-80
2023/06/19 12:17:31;;;;;;;2.85;2.67;;;31.10;45.40;;;;;;5017530;28;20022;-78
2023/06/19 12:19:57;;;;;;;3.60;3.30;;;31.10;45.50;;;;;;5031959;28;20052;-79
2023/06/19 12:22:23;;;;;;;3.53;3.22;;;30.90;45.60;;;;;;5029842;28;20044;-79
2023/06/19 12:24:48;;;;;;;3.05;2.85;;;30.70;45.90;;;;;;5022828;28;20093;-80
2023/06/19 12:27:18;;;;;;;3.92;3.10;;;;;;;;;;5004380;28;20033;-81
2023/06/19 12:29:43;;;;;;;3.25;3.05;;;30.30;45.80;;;;;;5005643;28;20061;-79
2023/06/19 12:32:09;;;;;;;2.88;2.67;;;30.30;46.90;;;;;;5022667;28;20021;-79
2023/06/19 12:34:35;;;;;;;3.00;2.80;;;30.30;46.40;;;;;;5022015;28;20030;-78
2023/06/19 12:37:01;;;;;;;3.58;2.85;;;30.40;46.70;;;;;;5016938;28;20026;-79
2023/06/19 12:39:27;;;;;;;3.17;2.92;;;30.60;46.20;;;;;;5006138;28;20041;-78
2023/06/19 12:41:53;;;;;;;4.63;3.03;;;30.80;46.30;;;;;;5022442;28;20483;-80
2023/06/19 12:44:18;;;;;;;3.80;3.47;;;30.90;46.10;;;;;;5025057;28;20037;-79
2023/06/19 12:46:45;;;;;;;3.35;3.05;;;;;;;;;;5011070;28;20029;-79
2023/06/19 12:49:10;;;;;;;2.97;2.78;;;30.90;45.70;;;;;;5022535;28;20045;-79
2023/06/19 12:51:36;;;;;;;2.97;2.78;;;31.00;46.00;;;;;;5021778;28;20014;-79
2023/06/19 12:54:02;;;;;;;2.80;2.65;;;31.00;45.90;;;;;;5022117;28;20087;-79